createdAt,value
2024-04-24T12:25:57.809Z,10.20
2024-04-24T12:28:25.163Z,10.30
2024-04-24T12:33:06.183Z,10.20
2024-04-24T12:35:34.131Z,10.40
2024-04-24T12:38:01.494Z,10.70
2024-04-24T12:40:33.439Z,10.60
2024-04-24T12:43:01.275Z,10.30
2024-04-24T12:45:28.729Z,10.70
2024-04-24T12:47:56.291Z,11.10
2024-04-24T12:50:23.811Z,11.40
2024-04-24T12:52:51.405Z,11.10
2024-04-24T12:55:19.627Z,11.10
2024-04-24T12:57:47.073Z,11.20
2024-04-24T13:00:17.587Z,11.20
2024-04-24T13:02:47.129Z,11.20
2024-04-24T13:05:15.167Z,11.10
2024-04-24T13:07:43.324Z,10.00
2024-04-24T13:10:11.375Z,9.90
2024-04-24T13:13:06.954Z,10.30
2024-04-24T13:15:34.639Z,10.00
2024-04-24T13:18:02.405Z,9.90
2024-04-24T13:20:30.688Z,10.20
2024-04-24T13:22:58.306Z,10.20
2024-04-24T13:25:25.933Z,9.90
2024-04-24T13:27:53.312Z,9.80
2024-04-24T13:30:20.733Z,10.10
2024-04-24T13:32:48.430Z,11.00
2024-04-24T13:35:17.470Z,10.90
2024-04-24T13:37:44.958Z,10.70
2024-04-24T13:40:12.428Z,10.70
2024-04-24T13:42:39.780Z,11.00
2024-04-24T13:45:07.647Z,10.90
2024-04-24T13:47:35.483Z,11.30
2024-04-24T13:50:03.527Z,11.10
2024-04-24T13:52:30.973Z,10.50
2024-04-24T13:54:58.561Z,10.80
2024-04-24T13:57:26.295Z,10.90
2024-04-24T13:59:53.840Z,11.10
2024-04-24T14:02:21.654Z,11.00
2024-04-24T14:04:49.217Z,11.00
2024-04-24T14:07:16.612Z,11.10
2024-04-24T14:09:44.249Z,11.20
2024-04-24T14:12:11.973Z,11.50
2024-04-24T14:14:39.456Z,10.90
2024-04-24T14:17:06.983Z,10.50
2024-04-24T14:19:34.370Z,10.90
2024-04-24T14:22:01.871Z,11.10
2024-04-24T14:24:30.031Z,10.80
2024-04-24T14:26:59.816Z,10.60
2024-04-24T14:29:27.441Z,10.80
2024-04-24T14:31:55.421Z,10.80
2024-04-24T14:34:23.053Z,10.60
2024-04-24T14:36:50.579Z,10.40
2024-04-24T14:39:17.955Z,10.30
2024-04-24T14:41:45.572Z,10.30
2024-04-24T14:44:12.987Z,10.30
2024-04-24T14:46:40.539Z,10.50
2024-04-24T14:49:07.967Z,10.40
2024-04-24T14:51:35.541Z,10.60
2024-04-24T14:54:03.614Z,10.80
2024-04-24T14:56:31.059Z,10.70
2024-04-24T14:58:58.604Z,10.30
2024-04-24T15:01:28.472Z,10.10
2024-04-24T15:03:56.996Z,10.20
2024-04-24T15:06:24.431Z,9.90
2024-04-24T15:08:51.889Z,9.80
2024-04-24T15:11:19.369Z,9.70
2024-04-24T15:13:47.780Z,9.70
2024-04-24T15:16:15.201Z,10.00
2024-04-24T15:18:42.891Z,10.30
2024-04-24T15:21:11.063Z,10.00
2024-04-24T15:23:38.446Z,10.00
2024-04-24T15:26:07.874Z,9.80
2024-04-24T15:28:39.786Z,9.90
2024-04-24T15:31:08.775Z,9.80
2024-04-24T15:33:40.245Z,9.60
2024-04-24T15:36:09.371Z,9.70
2024-04-24T15:38:36.866Z,9.90
2024-04-24T15:41:04.485Z,9.70
2024-04-24T15:43:31.983Z,9.70
2024-04-24T15:46:32.294Z,9.60
2024-04-24T15:49:39.147Z,9.40
2024-04-24T15:51:52.760Z,9.20
2024-04-24T15:54:20.577Z,9.30
2024-04-24T15:56:51.665Z,9.20
2024-04-24T15:59:19.301Z,9.10
2024-04-24T16:01:47.695Z,8.70
2024-04-24T16:04:19.259Z,8.70
2024-04-24T16:06:46.853Z,8.70
2024-04-24T16:09:16.310Z,8.50
2024-04-24T16:11:44.002Z,8.60
2024-04-24T16:14:12.301Z,8.80
2024-04-24T16:16:40.395Z,9.00
2024-04-24T16:19:08.894Z,9.20
2024-04-24T16:21:38.321Z,8.60
2024-04-24T16:24:07.112Z,8.40
2024-04-24T16:26:34.562Z,8.20
2024-04-24T16:29:04.969Z,8.60
2024-04-24T16:31:32.474Z,8.70
2024-04-24T16:33:59.972Z,9.00
2024-04-24T16:36:27.448Z,9.10
2024-04-24T16:38:54.888Z,9.20
2024-04-24T16:41:22.257Z,9.50
2024-04-24T16:43:52.958Z,9.60
2024-04-24T16:46:20.966Z,9.60
2024-04-24T16:48:48.862Z,9.20
2024-04-24T16:51:16.253Z,9.20
2024-04-24T16:53:46.850Z,9.50
2024-04-24T16:56:18.216Z,9.00
2024-04-24T16:58:45.838Z,9.00
2024-04-24T17:01:14.171Z,9.20
2024-04-24T17:03:41.637Z,9.10
2024-04-24T17:06:09.269Z,9.10
2024-04-24T17:08:37.980Z,9.00
2024-04-24T17:11:05.906Z,9.10
2024-04-24T17:13:34.427Z,8.90
2024-04-24T17:16:03.046Z,8.80
2024-04-24T17:18:32.319Z,8.80
2024-04-24T17:21:06.013Z,8.90
2024-04-24T17:23:35.053Z,8.80
2024-04-24T17:26:04.260Z,8.80
2024-04-24T17:28:31.798Z,8.80
2024-04-24T17:31:00.892Z,8.70
2024-04-24T17:33:29.017Z,8.70
2024-04-24T17:35:59.532Z,8.80
2024-04-24T17:38:29.548Z,8.70
2024-04-24T17:40:57.227Z,8.80
2024-04-24T17:43:26.786Z,8.90
2024-04-24T17:46:11.848Z,8.70
2024-04-24T17:52:04.664Z,8.50
2024-04-24T17:54:32.023Z,8.30
2024-04-24T17:56:59.354Z,8.30
2024-04-24T17:59:26.806Z,8.40
2024-04-24T18:01:54.833Z,8.40
2024-04-24T18:04:22.225Z,8.60
2024-04-24T18:06:50.255Z,8.60
2024-04-24T18:09:17.623Z,8.60
2024-04-24T18:11:45.192Z,8.70
2024-04-24T18:15:41.624Z,8.60
2024-04-24T18:18:09.214Z,8.60
2024-04-24T18:20:37.112Z,8.50
2024-04-24T18:23:04.683Z,8.50
2024-04-24T18:25:32.257Z,8.50
2024-04-24T18:28:01.716Z,8.50
2024-04-24T18:30:29.478Z,8.50
2024-04-24T18:33:03.975Z,8.60
2024-04-24T18:35:34.104Z,8.60
2024-04-24T18:38:01.885Z,8.50
2024-04-24T18:40:32.665Z,8.50
2024-04-24T18:43:00.337Z,8.50
2024-04-24T18:45:27.699Z,8.30
2024-04-24T18:47:56.570Z,8.30
2024-04-24T18:50:25.021Z,8.40
2024-04-24T18:52:57.105Z,8.50
2024-04-24T18:55:26.131Z,8.40
2024-04-24T18:57:53.497Z,8.30
2024-04-24T19:00:22.170Z,8.50
2024-04-24T19:02:50.045Z,8.50
2024-04-24T19:05:17.989Z,8.60
2024-04-24T19:07:45.530Z,8.60
2024-04-24T19:10:15.236Z,8.50
2024-04-24T19:12:43.727Z,8.50
2024-04-24T19:15:11.132Z,8.40
2024-04-24T19:17:38.970Z,8.50
2024-04-24T19:20:07.233Z,8.50
2024-04-24T19:22:36.142Z,8.50
2024-04-24T19:25:03.678Z,8.40
2024-04-24T19:27:38.368Z,8.40
2024-04-24T19:30:10.849Z,8.30
2024-04-24T19:32:43.644Z,8.40
2024-04-24T19:35:11.832Z,8.60
2024-04-24T19:37:39.391Z,8.60
2024-04-24T19:40:07.671Z,8.70
2024-04-24T19:42:35.604Z,8.60
2024-04-24T19:45:03.256Z,8.50
2024-04-24T19:47:30.955Z,8.50
2024-04-24T19:49:58.428Z,8.60
2024-04-24T19:52:25.890Z,8.40
2024-04-24T19:54:53.615Z,8.40
2024-04-24T19:57:21.085Z,8.40
2024-04-24T19:59:48.421Z,8.50
2024-04-24T20:02:20.103Z,8.40
2024-04-24T20:04:48.627Z,8.30
2024-04-24T20:07:15.983Z,8.40
2024-04-24T20:09:43.673Z,8.50
2024-04-24T20:12:11.244Z,8.60
2024-04-24T20:14:38.744Z,8.50
2024-04-24T20:17:06.457Z,8.40
2024-04-24T20:19:34.805Z,8.10
2024-04-24T20:22:02.527Z,8.00
2024-04-24T20:24:30.269Z,8.10
2024-04-24T20:26:57.842Z,8.20
2024-04-24T20:29:25.491Z,8.20
2024-04-24T20:31:53.711Z,8.00
2024-04-24T20:34:21.034Z,8.00
2024-04-24T20:36:48.406Z,7.90
2024-04-24T20:39:16.192Z,7.90
2024-04-24T20:41:45.785Z,8.00
2024-04-24T20:44:14.531Z,8.00
2024-04-24T20:46:43.459Z,8.20
2024-04-24T20:49:11.617Z,8.20
2024-04-24T20:51:39.981Z,8.10
2024-04-24T20:54:11.399Z,8.00
2024-04-24T20:56:39.469Z,7.90
2024-04-24T20:59:10.239Z,8.00
2024-04-24T21:01:39.951Z,8.00
2024-04-24T21:04:07.676Z,8.20
2024-04-24T21:06:36.440Z,8.20
2024-04-24T21:09:05.639Z,8.10
2024-04-24T21:11:34.757Z,7.90
2024-04-24T21:14:07.093Z,7.70
2024-04-24T21:16:34.802Z,7.70
2024-04-24T21:19:03.279Z,7.60
2024-04-24T21:21:32.483Z,7.60
2024-04-24T21:24:00.515Z,7.60
2024-04-24T21:26:27.984Z,7.60
2024-04-24T21:28:57.018Z,7.50
2024-04-24T21:31:24.729Z,7.40
2024-04-24T21:33:52.257Z,7.30
2024-04-24T21:36:20.648Z,7.40
2024-04-24T21:38:50.149Z,7.50
2024-04-24T21:41:22.514Z,7.50
2024-04-24T21:43:51.073Z,7.40
2024-04-24T21:46:23.660Z,7.30
2024-04-24T21:48:51.443Z,7.50
2024-04-24T21:51:19.087Z,7.50
2024-04-24T21:53:58.051Z,7.40
2024-04-24T21:56:26.201Z,7.40
2024-04-24T21:58:58.670Z,7.40
2024-04-24T22:01:26.237Z,7.40
2024-04-24T22:03:57.224Z,7.50
2024-04-24T22:06:25.585Z,7.40
2024-04-24T22:08:52.964Z,7.40
2024-04-24T22:11:20.578Z,7.30
2024-04-24T22:14:00.046Z,7.30
2024-04-24T22:16:27.742Z,7.30
2024-04-24T22:18:56.296Z,7.20
2024-04-24T22:21:24.046Z,7.20
2024-04-24T22:23:51.584Z,7.10
2024-04-24T22:26:18.967Z,6.80
2024-04-24T22:28:46.399Z,6.70
2024-04-24T22:31:14.754Z,6.70
2024-04-24T22:33:43.241Z,6.80
2024-04-24T22:36:11.009Z,6.80
2024-04-24T22:38:38.299Z,6.70
2024-04-24T22:41:06.114Z,6.70
2024-04-24T22:43:33.507Z,6.60
2024-04-24T22:46:00.879Z,6.60
2024-04-24T22:48:28.459Z,6.30
2024-04-24T22:50:56.161Z,6.30
2024-04-24T22:53:23.571Z,6.50
2024-04-24T22:55:51.173Z,6.50
2024-04-24T22:58:18.728Z,6.60
2024-04-24T23:00:46.156Z,6.50
2024-04-24T23:03:13.544Z,6.70
2024-04-24T23:05:41.157Z,6.80
2024-04-24T23:08:11.024Z,6.80
2024-04-24T23:10:38.408Z,6.70
2024-04-24T23:13:07.266Z,6.60
2024-04-24T23:15:34.659Z,6.60
2024-04-24T23:18:02.298Z,6.60
2024-04-24T23:20:29.969Z,6.40
2024-04-24T23:22:57.505Z,6.40
2024-04-24T23:25:25.012Z,6.30
2024-04-24T23:27:55.222Z,6.20
2024-04-24T23:30:23.136Z,6.40
2024-04-24T23:32:50.547Z,6.30
2024-04-24T23:35:18.206Z,6.20
2024-04-24T23:37:45.570Z,6.20
2024-04-24T23:40:13.044Z,6.30
2024-04-24T23:42:40.517Z,6.40
2024-04-24T23:45:07.922Z,6.40
2024-04-24T23:47:35.635Z,6.10
2024-04-24T23:50:03.129Z,6.10
2024-04-24T23:52:30.823Z,6.00
2024-04-24T23:54:58.184Z,5.90
2024-04-24T23:57:25.640Z,6.10
2024-04-24T23:59:52.943Z,6.10
